Time;durP1;ratioP1;P1;durP2;ratioP2;P2;SDS_P1;SDS_P2;PMS_P1;PMS_P2;Temp;Humidity;BMP_temperature;BMP_pressure;BME280_temperature;BME280_humidity;BME280_pressure;Samples;Min_cycle;Max_cycle;Signal;HPM_P1;HPM_P2
2022/12/02 00:02:26;;;;;;;;;;;8.20;59.00;;;;;;5076780;28;20395;-72
2022/12/02 00:05:04;;;;;;;55.00;28.23;;;8.20;59.20;;;;;;5076320;28;19908;-72
2022/12/02 00:07:32;;;;;;;51.67;27.58;;;8.20;59.00;;;;;;5076645;28;20060;-72
2022/12/02 00:10:01;;;;;;;52.10;30.45;;;8.20;59.10;;;;;;5058621;28;20082;-72
2022/12/02 00:12:30;;;;;;;54.80;30.73;;;8.20;59.10;;;;;;5076328;28;20103;-72
2022/12/02 00:15:02;;;;;;;51.70;28.15;;;8.20;59.10;;;;;;5076124;28;20059;-72
2022/12/02 00:17:28;;;;;;;53.75;29.85;;;8.20;59.20;;;;;;5058392;28;20031;-72
2022/12/02 00:19:57;;;;;;;51.05;28.80;;;8.10;59.20;;;;;;5058382;28;20024;-72
2022/12/02 00:22:26;;;;;;;57.25;30.40;;;8.10;59.20;;;;;;5075964;28;20039;-72
2022/12/02 00:24:51;;;;;;;54.78;29.50;;;8.10;59.20;;;;;;5076268;28;20032;-72
2022/12/02 00:27:17;;;;;;;50.58;28.88;;;8.10;59.10;;;;;;5058349;28;20354;-72
2022/12/02 00:29:45;;;;;;;62.00;30.75;;;8.10;59.20;;;;;;5068280;28;20027;-72
2022/12/02 00:32:11;;;;;;;54.65;30.45;;;8.10;59.10;;;;;;5067476;28;20036;-72
2022/12/02 00:34:37;;;;;;;51.88;28.63;;;8.20;59.20;;;;;;5043632;28;20025;-72
2022/12/02 00:37:06;;;;;;;57.03;29.92;;;8.10;59.20;;;;;;5056038;28;20096;-72
2022/12/02 00:39:31;;;;;;;55.17;30.45;;;8.10;59.10;;;;;;5038093;28;20032;-73
2022/12/02 00:41:59;;;;;;;62.92;32.17;;;8.10;59.00;;;;;;5054858;28;20389;-72
2022/12/02 00:47:10;;;;;;;52.05;29.02;;;8.10;58.90;;;;;;5055519;28;20032;-72
2022/12/02 00:49:38;;;;;;;60.67;30.80;;;8.00;58.90;;;;;;5055463;28;20385;-72
2022/12/02 00:52:04;;;;;;;53.17;29.48;;;8.00;58.80;;;;;;5055758;28;20033;-72
2022/12/02 00:54:37;;;;;;;53.75;30.20;;;8.00;58.80;;;;;;5055658;28;20036;-72
2022/12/02 00:57:03;;;;;;;58.97;30.93;;;8.00;58.90;;;;;;5037754;28;20542;-72
2022/12/02 00:59:34;;;;;;;61.72;31.58;;;8.00;58.90;;;;;;5060641;28;20048;-72
2022/12/02 01:01:59;;;;;;;56.35;30.55;;;8.00;58.90;;;;;;5075656;28;20421;-72
2022/12/02 01:04:28;;;;;;;58.47;33.40;;;7.90;58.80;;;;;;5075480;28;20078;-72
2022/12/02 01:06:54;;;;;;;65.32;31.67;;;7.90;58.80;;;;;;5075466;28;20024;-72
2022/12/02 01:09:20;;;;;;;55.13;30.75;;;7.90;58.90;;;;;;5075139;28;20029;-72
2022/12/02 01:11:46;;;;;;;60.78;32.50;;;7.90;59.10;;;;;;5057336;28;20086;-71
2022/12/02 01:14:12;;;;;;;58.47;31.90;;;7.90;59.10;;;;;;5075341;28;20032;-70
2022/12/02 01:16:40;;;;;;;55.95;31.60;;;7.90;59.00;;;;;;5057353;28;20031;-70
2022/12/02 01:19:08;;;;;;;60.03;33.05;;;7.90;58.90;;;;;;5056983;28;20025;-70
2022/12/02 01:21:34;;;;;;;62.55;34.08;;;7.90;58.90;;;;;;5074827;28;20033;-70
2022/12/02 01:24:02;;;;;;;74.60;34.92;;;7.90;58.80;;;;;;5075035;28;20024;-70
2022/12/02 01:26:28;;;;;;;68.65;33.83;;;7.80;58.80;;;;;;5075094;28;20036;-70
2022/12/02 01:28:56;;;;;;;63.10;34.28;;;7.80;58.90;;;;;;5074019;28;20361;-70
2022/12/02 01:31:24;;;;;;;75.20;37.00;;;7.80;59.10;;;;;;5054975;28;20033;-70
2022/12/02 01:33:52;;;;;;;67.35;35.05;;;7.80;59.10;;;;;;5037022;28;20032;-70
2022/12/02 01:36:21;;;;;;;68.05;35.67;;;7.80;59.10;;;;;;5054875;28;20163;-70
2022/12/02 01:38:49;;;;;;;69.30;36.75;;;7.70;59.10;;;;;;5054802;28;20025;-70
2022/12/02 01:41:18;;;;;;;68.97;36.63;;;7.70;59.10;;;;;;5036742;28;20044;-71
2022/12/02 01:43:47;;;;;;;67.45;35.92;;;7.70;59.20;;;;;;5054446;28;20384;-70
2022/12/02 01:46:15;;;;;;;66.57;35.28;;;7.70;59.10;;;;;;5054375;28;20025;-70
2022/12/02 01:48:44;;;;;;;73.60;35.53;;;7.70;59.00;;;;;;5036989;28;20457;-70
2022/12/02 01:51:18;;;;;;;65.13;34.72;;;7.60;58.90;;;;;;5053346;28;20465;-70
2022/12/02 01:53:49;;;;;;;66.72;34.17;;;7.60;59.10;;;;;;5054433;28;20025;-70
2022/12/02 01:56:15;;;;;;;58.25;31.40;;;7.60;59.20;;;;;;5054265;28;20078;-70
2022/12/02 01:58:41;;;;;;;69.55;35.03;;;7.60;59.20;;;;;;5054459;28;20498;-70
2022/12/02 02:01:28;;;;;;;67.32;33.30;;;7.60;59.20;;;;;;5054121;28;20109;-71
2022/12/02 02:03:56;;;;;;;64.15;33.42;;;7.60;59.40;;;;;;5074259;28;20024;-71
2022/12/02 02:06:28;;;;;;;61.97;32.17;;;7.60;59.50;;;;;;5074252;28;20126;-71
2022/12/02 02:08:55;;;;;;;66.85;33.15;;;7.60;59.40;;;;;;5074193;28;20032;-71
2022/12/02 02:11:21;;;;;;;71.20;37.13;;;7.60;59.40;;;;;;5074139;28;20099;-71
2022/12/02 02:13:50;;;;;;;61.80;32.42;;;7.60;59.40;;;;;;5073924;28;20020;-71
2022/12/02 02:16:16;;;;;;;58.15;31.38;;;7.60;59.40;;;;;;5056125;28;20372;-71
2022/12/02 02:18:45;;;;;;;64.63;33.22;;;7.60;59.30;;;;;;5073724;28;20028;-71
2022/12/02 02:21:18;;;;;;;61.65;34.08;;;7.60;59.40;;;;;;5074113;28;20391;-71
2022/12/02 02:23:46;;;;;;;68.33;35.67;;;7.60;59.20;;;;;;5073925;28;20025;-71
2022/12/02 02:26:12;;;;;;;67.10;34.13;;;7.60;59.10;;;;;;5073566;28;20044;-71
2022/12/02 02:28:38;;;;;;;62.97;34.17;;;7.50;58.90;;;;;;5055915;28;20028;-71
2022/12/02 02:31:04;;;;;;;61.45;32.95;;;7.50;58.90;;;;;;5037627;28;20115;-71
2022/12/02 02:33:33;;;;;;;64.90;34.05;;;7.50;59.00;;;;;;5053782;28;20025;-71
2022/12/02 02:36:02;;;;;;;64.95;34.75;;;7.40;58.90;;;;;;5053664;28;20079;-71
2022/12/02 02:38:29;;;;;;;70.75;36.45;;;7.40;58.90;;;;;;5035797;28;20025;-71
2022/12/02 02:40:59;;;;;;;62.13;34.20;;;7.40;59.00;;;;;;5053241;28;20029;-70
2022/12/02 02:43:29;;;;;;;67.78;34.92;;;7.40;59.10;;;;;;5069532;28;20476;-71
2022/12/02 02:45:58;;;;;;;69.47;36.60;;;7.30;59.00;;;;;;5073547;28;20025;-71
2022/12/02 02:48:30;;;;;;;69.75;34.92;;;7.40;59.30;;;;;;5073546;28;20027;-71
2022/12/02 02:50:59;;;;;;;68.07;36.13;;;7.30;59.20;;;;;;5073242;28;20025;-70
2022/12/02 02:53:25;;;;;;;67.22;35.30;;;7.30;59.20;;;;;;5055467;28;20456;-70
2022/12/02 02:55:54;;;;;;;63.20;35.38;;;7.30;59.10;;;;;;5055457;28;20060;-71
2022/12/02 02:58:23;;;;;;;64.50;34.40;;;7.30;59.10;;;;;;5073332;28;20383;-70
2022/12/02 03:01:03;;;;;;;68.25;35.92;;;7.30;59.20;;;;;;5057215;28;20089;-70
2022/12/02 03:03:36;;;;;;;63.55;33.20;;;7.30;59.10;;;;;;5053382;28;20029;-71
2022/12/02 03:06:06;;;;;;;64.45;35.05;;;7.30;59.20;;;;;;5052832;28;20022;-70
2022/12/02 03:08:33;;;;;;;66.40;33.97;;;7.30;59.20;;;;;;5052012;28;20123;-71
2022/12/02 03:11:01;;;;;;;64.57;34.67;;;7.30;59.20;;;;;;5053243;28;20036;-70
2022/12/02 03:13:30;;;;;;;64.00;35.25;;;7.30;59.30;;;;;;5052938;28;20487;-72
2022/12/02 03:15:59;;;;;;;64.38;35.40;;;7.30;59.20;;;;;;5053291;28;20028;-72
2022/12/02 03:18:25;;;;;;;65.10;34.42;;;7.30;59.20;;;;;;5052998;28;20051;-72
2022/12/02 03:20:51;;;;;;;63.70;34.47;;;7.30;59.10;;;;;;5051800;28;20465;-71
2022/12/02 03:23:21;;;;;;;68.35;35.80;;;7.30;59.00;;;;;;5034968;28;20033;-72
2022/12/02 03:25:48;;;;;;;69.97;35.13;;;7.20;58.90;;;;;;5052952;28;20028;-71
2022/12/02 03:28:14;;;;;;;66.93;34.75;;;7.20;59.10;;;;;;5035298;28;20049;-72
2022/12/02 03:30:42;;;;;;;63.40;33.20;;;7.20;59.20;;;;;;5066496;28;20032;-72
2022/12/02 03:33:10;;;;;;;62.83;32.20;;;7.20;59.30;;;;;;5073123;28;20027;-72
2022/12/02 03:35:39;;;;;;;63.75;35.08;;;7.20;59.30;;;;;;5073047;28;20039;-72
2022/12/02 03:38:07;;;;;;;67.10;34.78;;;7.20;59.30;;;;;;5054938;28;20024;-71
2022/12/02 03:40:35;;;;;;;66.15;34.15;;;7.20;59.30;;;;;;5055016;28;20025;-72
2022/12/02 03:43:04;;;;;;;59.60;32.65;;;7.30;60.00;;;;;;5072955;28;20060;-72
2022/12/02 03:45:35;;;;;;;71.28;34.63;;;7.20;59.30;;;;;;5073036;28;20044;-72
2022/12/02 03:48:03;;;;;;;67.10;34.28;;;7.20;59.30;;;;;;5055021;28;20029;-72
2022/12/02 03:50:32;;;;;;;63.00;31.92;;;7.30;59.30;;;;;;5051284;28;20357;-72
2022/12/02 03:52:58;;;;;;;65.32;34.97;;;7.30;59.40;;;;;;5052669;28;20029;-72
2022/12/02 03:55:26;;;;;;;62.53;33.08;;;7.20;59.30;;;;;;5052917;28;20032;-72
2022/12/02 03:57:52;;;;;;;62.78;32.47;;;7.20;59.40;;;;;;5034980;28;20089;-72
2022/12/02 04:00:18;;;;;;;59.88;30.42;;;7.20;59.40;;;;;;5034465;28;20049;-72
2022/12/02 04:02:47;;;;;;;65.68;34.67;;;7.30;59.50;;;;;;5052735;28;20029;-72
2022/12/02 04:05:16;;;;;;;62.42;33.42;;;7.30;59.40;;;;;;5034790;28;20040;-72
2022/12/02 04:07:41;;;;;;;63.22;32.92;;;7.30;59.40;;;;;;5052773;28;20036;-72
2022/12/02 04:10:08;;;;;;;70.40;34.78;;;7.30;59.40;;;;;;5053045;28;20021;-71
2022/12/02 04:12:33;;;;;;;60.75;32.90;;;7.30;59.50;;;;;;5052433;28;20127;-71
2022/12/02 04:14:59;;;;;;;67.20;33.80;;;7.30;59.50;;;;;;5034452;28;20111;-72
2022/12/02 04:17:25;;;;;;;63.15;33.45;;;7.30;59.50;;;;;;5054603;28;20031;-72
2022/12/02 04:19:51;;;;;;;67.85;35.67;;;7.30;59.50;;;;;;5056257;28;20028;-72
2022/12/02 04:22:19;;;;;;;75.63;37.03;;;7.40;59.60;;;;;;5074785;28;20063;-72
2022/12/02 04:24:45;;;;;;;67.70;34.72;;;7.40;59.50;;;;;;5076149;28;20056;-71
2022/12/02 04:27:19;;;;;;;64.82;34.88;;;7.40;59.50;;;;;;5076223;28;20503;-72
2022/12/02 04:29:44;;;;;;;;;;;7.40;59.40;;;;;;5076465;28;20020;-72
2022/12/02 04:32:10;;;;;;;61.88;31.42;;;7.40;59.60;;;;;;5075946;28;19951;-72
2022/12/02 04:34:36;;;;;;;65.03;34.80;;;7.50;59.50;;;;;;5057987;28;20379;-71
2022/12/02 04:37:02;;;;;;;66.60;34.30;;;7.40;59.40;;;;;;5075875;28;20036;-71
2022/12/02 04:39:28;;;;;;;64.60;33.72;;;7.40;59.40;;;;;;5075926;28;20379;-72
2022/12/02 04:41:53;;;;;;;71.45;33.55;;;7.50;59.50;;;;;;5075744;28;20029;-71
2022/12/02 04:44:22;;;;;;;58.42;31.38;;;7.50;59.50;;;;;;5075693;28;20404;-72
2022/12/02 04:46:47;;;;;;;63.50;33.60;;;7.50;59.50;;;;;;5075490;28;20052;-72
2022/12/02 04:49:13;;;;;;;68.75;36.13;;;7.50;59.50;;;;;;5057704;28;20067;-72
2022/12/02 04:51:44;;;;;;;66.60;34.58;;;7.50;59.40;;;;;;5043694;28;20124;-72
2022/12/02 04:54:10;;;;;;;63.30;33.58;;;7.50;59.40;;;;;;5037809;28;20484;-72
2022/12/02 04:56:38;;;;;;;57.88;31.48;;;7.50;59.40;;;;;;5055308;28;20025;-72
2022/12/02 04:59:04;;;;;;;64.45;33.83;;;7.50;59.40;;;;;;5055202;28;20037;-72
2022/12/02 05:01:32;;;;;;;60.38;33.35;;;7.50;59.20;;;;;;5037476;28;20358;-71
2022/12/02 05:04:03;;;;;;;58.63;31.63;;;7.60;59.20;;;;;;5055451;28;20108;-72
2022/12/02 05:06:31;;;;;;;58.03;30.85;;;7.60;59.20;;;;;;5055072;28;20090;-72
2022/12/02 05:08:59;;;;;;;57.40;31.60;;;7.60;59.30;;;;;;5055016;28;20527;-72
2022/12/02 05:11:25;;;;;;;65.88;34.85;;;7.60;59.20;;;;;;5055049;28;20033;-71
2022/12/02 05:13:51;;;;;;;55.40;31.30;;;7.60;59.10;;;;;;5037021;28;20032;-71
2022/12/02 05:16:22;;;;;;;65.82;33.78;;;7.60;59.10;;;;;;5037252;28;20465;-71
2022/12/02 05:18:50;;;;;;;64.63;34.05;;;7.60;58.90;;;;;;5054837;28;20078;-71
2022/12/02 05:21:18;;;;;;;54.58;30.70;;;7.60;58.90;;;;;;5054851;28;20033;-71
2022/12/02 05:23:44;;;;;;;58.40;30.95;;;7.60;59.00;;;;;;5036815;28;20033;-72
2022/12/02 05:26:11;;;;;;;57.13;31.30;;;7.60;59.10;;;;;;5054717;28;20380;-72
2022/12/02 05:28:36;;;;;;;54.83;31.20;;;7.60;59.00;;;;;;5054126;28;20496;-71
2022/12/02 05:31:02;;;;;;;59.50;33.92;;;7.60;59.00;;;;;;5036929;28;20060;-72
2022/12/02 05:33:31;;;;;;;58.42;31.95;;;7.60;58.90;;;;;;5036869;28;20028;-72
2022/12/02 05:36:01;;;;;;;62.97;33.30;;;7.60;58.80;;;;;;5054367;28;20530;-74
2022/12/02 05:38:29;;;;;;;60.10;32.90;;;7.60;58.80;;;;;;5054827;28;20025;-72
2022/12/02 05:40:56;;;;;;;59.72;32.08;;;7.60;58.80;;;;;;5054177;28;20434;-72
2022/12/02 05:43:27;;;;;;;62.92;30.60;;;7.60;59.00;;;;;;5054340;28;20075;-72
2022/12/02 05:45:58;;;;;;;73.65;38.63;;;7.60;58.90;;;;;;5054692;28;20036;-72
2022/12/02 05:48:28;;;;;;;80.40;41.35;;;7.60;59.50;;;;;;5054342;28;20033;-72
2022/12/02 05:50:56;;;;;;;71.50;35.58;;;7.60;58.90;;;;;;5054650;28;20021;-71
2022/12/02 05:53:30;;;;;;;64.82;33.40;;;7.60;59.00;;;;;;5054193;28;20499;-72
2022/12/02 05:56:08;;;;;;;61.65;32.47;;;7.60;58.90;;;;;;5054395;28;20099;-72
2022/12/02 05:58:33;;;;;;;61.40;32.10;;;7.60;58.90;;;;;;5054045;28;20510;-71
2022/12/02 06:01:15;;;;;;;57.72;30.67;;;7.60;58.90;;;;;;5053859;28;20076;-71
2022/12/02 06:03:44;;;;;;;64.07;33.47;;;7.60;58.90;;;;;;5054081;28;20091;-71
2022/12/02 06:06:15;;;;;;;60.00;32.78;;;7.60;58.80;;;;;;5036225;28;20028;-72
2022/12/02 06:08:43;;;;;;;64.70;33.38;;;7.60;58.80;;;;;;5053851;28;20370;-71
2022/12/02 06:11:33;;;;;;;60.83;33.58;;;7.60;58.70;;;;;;5036226;28;20461;-71
2022/12/02 06:14:05;;;;;;;59.33;32.20;;;7.60;58.60;;;;;;5054067;28;20056;-71
2022/12/02 06:16:34;;;;;;;54.38;30.48;;;7.50;58.60;;;;;;5036196;28;20459;-71
2022/12/02 06:19:14;;;;;;;68.80;35.40;;;7.60;58.80;;;;;;5035932;28;20025;-71
2022/12/02 06:21:46;;;;;;;56.92;31.75;;;7.60;58.80;;;;;;5057810;28;20028;-71
2022/12/02 06:24:14;;;;;;;60.85;34.13;;;7.60;58.70;;;;;;5073865;28;20097;-71
2022/12/02 06:26:45;;;;;;;58.03;32.47;;;7.50;58.60;;;;;;5073866;28;20028;-72
2022/12/02 06:29:16;;;;;;;65.43;33.03;;;7.60;58.60;;;;;;5055862;28;20045;-71
2022/12/02 06:31:44;;;;;;;63.60;33.35;;;7.60;58.70;;;;;;5073722;28;20414;-71
2022/12/02 06:34:32;;;;;;;66.60;34.00;;;7.60;58.70;;;;;;5055670;28;20035;-71
2022/12/02 06:37:00;;;;;;;62.33;32.08;;;7.50;58.60;;;;;;5055690;28;20047;-71
2022/12/02 06:39:28;;;;;;;57.72;31.08;;;7.60;58.70;;;;;;5072521;28;20028;-71
2022/12/02 06:42:16;;;;;;;59.88;32.42;;;7.60;58.70;;;;;;5055596;28;20035;-71
2022/12/02 06:47:31;;;;;;;57.45;32.00;;;7.60;58.70;;;;;;5073299;28;20031;-71
2022/12/02 06:50:06;;;;;;;61.40;32.42;;;7.60;58.70;;;;;;5073189;28;20025;-72
2022/12/02 06:52:41;;;;;;;59.58;30.75;;;7.60;58.70;;;;;;5073339;28;20041;-71
2022/12/02 06:55:33;;;;;;;61.22;32.72;;;7.50;58.60;;;;;;5073541;28;20021;-71
2022/12/02 06:58:21;;;;;;;65.07;33.85;;;7.50;58.60;;;;;;5057891;28;20044;-71
2022/12/02 07:00:49;;;;;;;64.22;32.53;;;7.50;58.50;;;;;;5054925;28;20127;-71
2022/12/02 07:03:32;;;;;;;58.78;33.35;;;7.60;58.60;;;;;;5073419;28;20392;-71
2022/12/02 07:06:15;;;;;;;62.28;32.75;;;7.50;58.60;;;;;;5073417;28;20063;-72
2022/12/02 07:08:43;;;;;;;61.80;33.47;;;7.50;58.40;;;;;;5055469;28;20116;-71
2022/12/02 07:11:48;;;;;;;65.18;34.78;;;7.60;58.60;;;;;;5072072;28;20025;-71
2022/12/02 07:14:37;;;;;;;64.68;34.17;;;7.60;58.60;;;;;;5072885;28;20383;-72
2022/12/02 07:17:22;;;;;;;69.82;35.42;;;7.60;58.50;;;;;;5073106;28;20017;-71
2022/12/02 07:20:11;;;;;;;67.95;34.15;;;7.60;58.50;;;;;;5073320;28;20033;-71
2022/12/02 07:22:50;;;;;;;63.42;33.95;;;7.60;58.40;;;;;;5061995;28;20546;-71
2022/12/02 07:25:27;;;;;;;65.18;33.50;;;7.60;58.40;;;;;;5055341;28;20400;-71
2022/12/02 07:27:55;;;;;;;59.92;31.90;;;7.60;58.40;;;;;;5073067;28;20426;-72
2022/12/02 07:30:33;;;;;;;67.32;35.30;;;7.60;58.30;;;;;;5073219;28;20035;-71
2022/12/02 07:33:04;;;;;;;76.40;39.88;;;7.60;58.30;;;;;;5073256;28;20029;-71
2022/12/02 07:35:33;;;;;;;65.68;35.63;;;7.60;58.30;;;;;;5055158;28;20353;-71
2022/12/02 07:38:06;;;;;;;57.63;32.03;;;7.60;58.30;;;;;;5055107;28;20032;-72
2022/12/02 07:40:35;;;;;;;72.18;35.55;;;7.70;58.40;;;;;;5072826;28;20032;-71
2022/12/02 07:43:03;;;;;;;67.15;34.30;;;7.70;58.30;;;;;;5055005;28;20037;-71
2022/12/02 07:45:31;;;;;;;66.57;35.20;;;7.70;58.10;;;;;;5073066;28;20074;-71
2022/12/02 07:48:00;;;;;;;61.55;31.83;;;7.60;57.80;;;;;;5073087;28;20025;-71
2022/12/02 07:50:34;;;;;;;58.85;32.42;;;7.70;58.00;;;;;;5071463;28;20357;-71
2022/12/02 07:53:00;;;;;;;;;;;7.70;58.10;;;;;;5057133;28;20040;-71
2022/12/02 07:55:31;;;;;;;64.20;34.05;;;7.70;58.30;;;;;;5038945;28;19905;-71
2022/12/02 07:58:04;;;;;;;69.97;35.95;;;7.70;58.20;;;;;;5038957;28;20038;-71
2022/12/02 08:00:36;;;;;;;65.30;33.65;;;7.70;58.20;;;;;;5056124;28;20375;-71
2022/12/02 08:03:04;;;;;;;65.97;34.28;;;7.80;58.10;;;;;;5038371;28;20029;-71
2022/12/02 08:05:32;;;;;;;69.78;36.95;;;7.80;58.70;;;;;;5056574;28;20380;-71
2022/12/02 08:08:00;;;;;;;67.32;35.75;;;7.80;58.10;;;;;;5038546;28;20025;-71
2022/12/02 08:10:31;;;;;;;60.60;32.55;;;7.80;58.00;;;;;;5038453;28;20028;-71
2022/12/02 08:13:05;;;;;;;65.30;34.38;;;7.80;58.00;;;;;;5056424;28;20417;-71
2022/12/02 08:15:39;;;;;;;61.05;33.03;;;7.80;58.10;;;;;;5038438;28;20025;-71
2022/12/02 08:18:08;;;;;;;66.00;35.08;;;7.80;58.10;;;;;;5056144;28;20117;-71
2022/12/02 08:20:36;;;;;;;63.22;32.88;;;7.80;58.10;;;;;;5055587;28;20396;-71
2022/12/02 08:23:07;;;;;;;63.03;33.63;;;7.80;58.00;;;;;;5056015;28;20041;-71
2022/12/02 08:25:41;;;;;;;60.40;33.53;;;7.90;58.10;;;;;;5038243;28;20029;-71
2022/12/02 08:28:09;;;;;;;64.53;34.75;;;7.90;58.10;;;;;;5055886;28;20526;-71
2022/12/02 08:30:37;;;;;;;57.80;32.10;;;7.90;58.20;;;;;;5055935;28;20419;-71
2022/12/02 08:33:08;;;;;;;61.05;32.58;;;7.90;58.20;;;;;;5055883;28;20354;-71
2022/12/02 08:35:42;;;;;;;62.30;33.58;;;7.90;58.10;;;;;;5055902;28;20057;-71
2022/12/02 08:38:10;;;;;;;;;;;7.90;57.80;;;;;;5038510;28;20061;-71
2022/12/02 08:40:41;;;;;;;70.20;33.85;;;8.00;58.10;;;;;;5055458;28;19905;-71
2022/12/02 08:43:09;;;;;;;65.72;34.38;;;8.00;57.90;;;;;;5055465;28;20033;-71
2022/12/02 08:45:38;;;;;;;70.93;36.35;;;8.00;57.80;;;;;;5037365;28;20032;-71
2022/12/02 08:48:06;;;;;;;67.50;35.90;;;8.00;57.80;;;;;;5055601;28;20029;-71
2022/12/02 08:50:35;;;;;;;66.22;34.22;;;8.00;57.70;;;;;;5055619;28;20036;-71
2022/12/02 08:53:06;;;;;;;66.55;34.38;;;8.00;57.80;;;;;;5037692;28;20293;-71
2022/12/02 08:55:37;;;;;;;59.97;34.10;;;8.00;57.80;;;;;;5037632;28;20036;-71
2022/12/02 08:58:08;;;;;;;66.68;33.10;;;8.00;57.80;;;;;;5037346;28;20063;-71
2022/12/02 09:00:36;;;;;;;66.57;33.83;;;8.00;57.70;;;;;;5037018;28;20053;-71
2022/12/02 09:03:10;;;;;;;62.08;33.08;;;8.10;57.70;;;;;;5052875;28;20040;-71
2022/12/02 09:05:40;;;;;;;61.13;32.22;;;8.10;57.70;;;;;;5055149;28;20036;-71
2022/12/02 09:08:09;;;;;;;65.13;35.65;;;8.10;57.80;;;;;;5055114;28;20052;-72
2022/12/02 09:10:38;;;;;;;76.15;36.90;;;8.10;57.70;;;;;;5055229;28;20104;-71
2022/12/02 09:13:06;;;;;;;75.25;39.13;;;8.10;57.70;;;;;;5037671;28;20039;-70
2022/12/02 09:15:34;;;;;;;72.03;37.85;;;8.20;57.60;;;;;;5054847;28;20485;-71
2022/12/02 09:18:02;;;;;;;63.28;35.28;;;8.10;57.20;;;;;;5055211;28;20096;-71
2022/12/02 09:20:30;;;;;;;67.38;35.50;;;8.20;57.40;;;;;;5054964;28;20051;-71
2022/12/02 09:23:01;;;;;;;71.65;36.47;;;8.20;57.40;;;;;;5055082;28;20032;-71
2022/12/02 09:25:35;;;;;;;67.55;36.10;;;8.20;57.40;;;;;;5037377;28;20384;-71
2022/12/02 09:28:04;;;;;;;65.90;34.10;;;8.20;57.50;;;;;;5055146;28;20451;-70
2022/12/02 09:30:35;;;;;;;63.28;34.05;;;8.30;57.50;;;;;;5054922;28;20487;-70
2022/12/02 09:33:03;;;;;;;68.32;37.30;;;8.30;57.60;;;;;;5055075;28;20492;-71
2022/12/02 09:35:38;;;;;;;73.70;36.83;;;8.40;57.40;;;;;;5054718;28;20432;-71
2022/12/02 09:38:06;;;;;;;62.45;34.15;;;8.40;57.40;;;;;;5036934;28;20032;-70
2022/12/02 09:40:38;;;;;;;63.78;33.55;;;8.50;57.50;;;;;;5054393;28;20056;-70
2022/12/02 09:43:07;;;;;;;57.60;31.88;;;8.50;57.40;;;;;;5054700;28;20036;-71
2022/12/02 09:45:35;;;;;;;61.38;32.58;;;8.60;57.30;;;;;;5054447;28;20086;-70
2022/12/02 09:48:04;;;;;;;67.15;33.20;;;8.60;57.30;;;;;;5054040;28;20087;-71
2022/12/02 09:50:33;;;;;;;59.75;31.73;;;8.70;57.10;;;;;;5054674;28;20033;-71
2022/12/02 09:53:04;;;;;;;61.85;31.52;;;8.70;57.10;;;;;;5054653;28;20476;-71
2022/12/02 09:55:35;;;;;;;60.88;32.50;;;8.70;56.90;;;;;;5054529;28;20373;-71
2022/12/02 09:58:20;;;;;;;57.00;30.50;;;8.80;56.90;;;;;;5054593;28;20029;-71
2022/12/02 10:00:50;;;;;;;;;;;8.80;56.80;;;;;;5069034;28;20076;-71
2022/12/02 10:03:23;;;;;;;57.13;32.13;;;8.80;57.20;;;;;;5074334;28;19908;-72
2022/12/02 10:05:57;;;;;;;56.78;31.17;;;8.80;56.70;;;;;;5074705;28;20024;-72
2022/12/02 10:08:26;;;;;;;64.07;36.15;;;8.80;56.90;;;;;;5073890;28;20487;-72
2022/12/02 10:10:56;;;;;;;62.45;32.78;;;8.80;56.90;;;;;;5074157;28;20107;-72
2022/12/02 10:13:24;;;;;;;60.78;33.60;;;8.80;56.90;;;;;;5074174;28;20032;-72
2022/12/02 10:15:54;;;;;;;61.17;32.83;;;8.80;56.90;;;;;;5073364;28;20624;-72
2022/12/02 10:18:30;;;;;;;64.38;33.30;;;8.80;57.00;;;;;;5073931;28;20024;-72
2022/12/02 10:20:58;;;;;;;61.42;31.90;;;8.80;57.20;;;;;;5073774;28;20036;-72
2022/12/02 10:23:32;;;;;;;60.92;32.35;;;8.80;57.40;;;;;;5056036;28;20391;-72
2022/12/02 10:26:11;;;;;;;57.95;30.58;;;8.80;57.30;;;;;;5073768;28;20032;-71
2022/12/02 10:29:05;;;;;;;63.80;34.45;;;8.80;57.20;;;;;;5073878;28;20029;-71
2022/12/02 10:31:37;;;;;;;60.20;33.17;;;8.90;57.10;;;;;;5056117;28;20037;-71
2022/12/02 10:34:11;;;;;;;56.47;31.42;;;8.90;57.20;;;;;;5073537;28;20039;-72
2022/12/02 10:36:40;;;;;;;;;;;9.00;57.10;;;;;;5056248;28;20039;-71
2022/12/02 10:39:22;;;;;;;53.25;29.65;;;9.00;57.40;;;;;;5073776;28;19979;-71
2022/12/02 10:42:12;;;;;;;53.25;29.88;;;9.00;57.10;;;;;;5073987;28;20068;-71
2022/12/02 10:44:47;;;;;;;56.78;31.13;;;9.10;57.00;;;;;;5066918;28;20040;-71
2022/12/02 10:47:19;;;;;;;59.38;30.58;;;9.10;56.80;;;;;;5073236;28;20052;-71
2022/12/02 10:49:58;;;;;;;63.63;31.48;;;9.20;56.90;;;;;;5073374;28;20029;-71
2022/12/02 10:52:35;;;;;;;56.55;29.85;;;9.20;56.90;;;;;;5073659;28;20028;-71
2022/12/02 10:55:09;;;;;;;55.58;29.60;;;9.30;57.00;;;;;;5073366;28;20031;-71
2022/12/02 10:57:37;;;;;;;59.15;31.55;;;9.30;56.90;;;;;;5073619;28;20025;-71
2022/12/02 11:00:18;;;;;;;56.95;31.77;;;9.40;56.40;;;;;;5073084;28;20053;-71
2022/12/02 11:02:56;;;;;;;55.63;31.42;;;9.40;56.20;;;;;;5073398;28;20036;-71
2022/12/02 11:05:30;;;;;;;59.13;32.17;;;9.40;56.10;;;;;;5073671;28;20052;-72
2022/12/02 11:08:28;;;;;;;59.00;31.98;;;9.50;56.20;;;;;;5073446;28;20025;-71
2022/12/02 11:11:36;;;;;;;56.85;32.58;;;9.50;56.10;;;;;;4955963;28;20043;-71
2022/12/02 11:14:11;;;;;;;57.92;31.10;;;9.60;56.00;;;;;;4955923;28;20510;-71
2022/12/02 11:16:39;;;;;;;60.65;33.28;;;9.60;55.60;;;;;;4972410;28;20027;-71
2022/12/02 11:19:05;;;;;;;59.72;31.35;;;9.60;55.50;;;;;;4955966;28;20078;-71
2022/12/02 11:21:37;;;;;;;56.90;31.35;;;9.60;55.80;;;;;;4955902;28;20074;-72
2022/12/02 11:24:27;;;;;;;52.35;28.25;;;9.60;56.00;;;;;;4972200;28;20023;-72
2022/12/02 11:27:02;;;;;;;54.92;31.25;;;9.60;56.00;;;;;;4958815;28;20121;-71
2022/12/02 11:30:03;;;;;;;54.88;29.52;;;9.70;56.10;;;;;;4976256;28;20136;-72
2022/12/02 11:32:28;;;;;;;51.75;28.73;;;9.70;56.10;;;;;;4959537;28;20038;-72
2022/12/02 11:34:59;;;;;;;50.97;29.17;;;9.70;56.10;;;;;;4959810;28;20042;-72
2022/12/02 11:37:35;;;;;;;52.75;27.98;;;9.70;56.00;;;;;;4959864;28;20031;-72
2022/12/02 11:40:18;;;;;;;50.92;28.70;;;9.80;56.00;;;;;;4975984;28;20035;-72
2022/12/02 11:42:51;;;;;;;51.53;30.20;;;9.70;55.80;;;;;;4959643;28;20042;-70
2022/12/02 11:45:20;;;;;;;51.08;29.75;;;9.70;55.90;;;;;;4975683;28;20037;-70
2022/12/02 11:48:00;;;;;;;55.00;30.67;;;9.70;55.80;;;;;;5047763;28;20047;-71
2022/12/02 11:50:34;;;;;;;53.15;29.83;;;9.70;55.60;;;;;;5076412;28;20025;-71
2022/12/02 11:53:18;;;;;;;57.10;32.70;;;9.60;55.80;;;;;;5058806;28;20383;-71
2022/12/02 11:55:55;;;;;;;53.97;29.52;;;9.60;55.80;;;;;;5076873;28;20068;-71
2022/12/02 11:58:32;;;;;;;59.17;33.47;;;9.60;56.10;;;;;;5058719;28;20041;-71
2022/12/02 12:01:18;;;;;;;54.90;29.85;;;9.50;56.10;;;;;;5076271;28;20052;-71
2022/12/02 12:03:49;;;;;;;52.08;29.50;;;9.50;56.10;;;;;;5058626;28;20040;-71
2022/12/02 12:06:20;;;;;;;51.78;29.00;;;9.50;56.20;;;;;;5076561;28;20107;-71
2022/12/02 12:08:54;;;;;;;50.35;28.85;;;9.50;56.10;;;;;;5076564;28;20024;-71
2022/12/02 12:11:31;;;;;;;50.88;29.20;;;9.50;55.90;;;;;;5058437;28;20024;-71
2022/12/02 12:14:22;;;;;;;51.58;29.75;;;9.40;56.00;;;;;;5076078;28;20399;-71
2022/12/02 12:16:52;;;;;;;56.55;31.02;;;9.40;56.00;;;;;;5076086;28;20028;-71
2022/12/02 12:19:20;;;;;;;55.63;30.95;;;9.40;55.80;;;;;;5058204;28;20066;-71
2022/12/02 12:21:57;;;;;;;51.90;29.77;;;9.40;55.90;;;;;;5076232;28;20044;-71
2022/12/02 12:24:22;;;;;;;53.80;30.42;;;9.40;56.10;;;;;;5075955;28;20480;-71
2022/12/02 12:27:08;;;;;;;52.35;29.92;;;9.40;56.00;;;;;;5076212;28;20028;-71
2022/12/02 12:29:42;;;;;;;50.00;28.30;;;9.40;56.10;;;;;;5058241;28;20372;-71
2022/12/02 12:32:15;;;;;;;48.88;28.75;;;9.40;56.30;;;;;;5075794;28;20032;-71
2022/12/02 12:34:49;;;;;;;51.63;30.37;;;9.40;56.50;;;;;;5076466;28;20033;-71
2022/12/02 12:37:17;;;;;;;55.00;31.50;;;9.40;56.50;;;;;;5074617;28;20025;-71
2022/12/02 12:39:46;;;;;;;49.28;29.15;;;9.40;56.40;;;;;;5057814;28;20037;-71
2022/12/02 12:42:14;;;;;;;54.83;31.13;;;9.40;56.50;;;;;;5056906;28;20389;-71
2022/12/02 12:44:40;;;;;;;53.40;30.58;;;9.30;56.40;;;;;;5075535;28;20025;-71
2022/12/02 12:47:08;;;;;;;58.30;31.33;;;9.30;56.50;;;;;;5075787;28;20487;-71
2022/12/02 12:49:36;;;;;;;54.33;30.15;;;9.30;56.40;;;;;;5057598;28;20028;-72
2022/12/02 12:52:08;;;;;;;53.63;30.75;;;9.30;56.50;;;;;;5075695;28;20403;-71
2022/12/02 12:54:39;;;;;;;54.25;30.60;;;9.30;56.60;;;;;;5057818;28;20025;-71
2022/12/02 12:57:07;;;;;;;58.80;33.03;;;9.30;56.70;;;;;;5075609;28;20346;-71
2022/12/02 12:59:35;;;;;;;62.38;34.63;;;9.30;56.80;;;;;;5075599;28;20056;-71
2022/12/02 13:02:04;;;;;;;62.15;34.85;;;9.30;57.00;;;;;;5057481;28;20064;-71
2022/12/02 13:04:36;;;;;;;63.67;34.40;;;9.30;57.10;;;;;;5075483;28;20060;-71